createdAt,value
2018-09-08T00:01:25.299Z,209.20
2018-09-08T00:03:53.656Z,199.93
2018-09-08T00:06:27.331Z,219.13
2018-09-08T00:08:55.632Z,203.50
2018-09-08T00:11:23.926Z,186.77
2018-09-08T00:13:52.205Z,193.07
2018-09-08T00:16:25.985Z,186.70
2018-09-08T00:18:59.762Z,182.07
2018-09-08T00:21:33.284Z,177.10
2018-09-08T00:24:07.010Z,189.67
2018-09-08T00:26:34.578Z,204.47
2018-09-08T00:29:08.696Z,202.47
2018-09-08T00:31:37.148Z,204.50
2018-09-08T00:34:05.508Z,238.63
2018-09-08T00:36:33.827Z,270.40
2018-09-08T00:39:02.139Z,237.33
2018-09-08T00:41:30.423Z,266.80
2018-09-08T00:43:58.747Z,236.37
2018-09-08T00:46:27.059Z,228.00
2018-09-08T00:48:55.354Z,163.83
2018-09-08T00:51:23.649Z,121.10
2018-09-08T00:53:52.004Z,120.30
2018-09-08T00:56:20.355Z,135.33
2018-09-08T00:58:53.874Z,132.87
2018-09-08T01:01:22.153Z,147.00
2018-09-08T01:03:50.650Z,141.03
2018-09-08T01:06:18.821Z,124.70
2018-09-08T01:08:47.136Z,121.53
2018-09-08T01:11:15.463Z,109.47
2018-09-08T01:13:43.771Z,117.47
2018-09-08T01:16:12.088Z,120.17
2018-09-08T01:18:40.380Z,136.77
2018-09-08T01:21:09.394Z,126.73
2018-09-08T01:23:37.979Z,108.47
2018-09-08T01:26:06.259Z,105.23
2018-09-08T01:28:34.556Z,106.33
2018-09-08T01:31:02.830Z,97.30
2018-09-08T01:33:31.116Z,100.43
2018-09-08T01:35:59.394Z,95.83
2018-09-08T01:38:27.732Z,88.80
2018-09-08T01:40:56.011Z,82.90
2018-09-08T01:43:24.348Z,83.47
2018-09-08T01:45:52.659Z,79.33
2018-09-08T01:48:20.950Z,80.83
2018-09-08T01:50:49.265Z,76.00
2018-09-08T01:53:17.626Z,75.43
2018-09-08T01:55:45.902Z,68.43
2018-09-08T01:58:14.179Z,66.30
2018-09-08T02:00:42.474Z,66.17
2018-09-08T02:03:10.748Z,63.97
2018-09-08T02:05:39.034Z,64.73
2018-09-08T02:08:07.306Z,60.80
2018-09-08T02:10:35.575Z,57.80
2018-09-08T02:13:03.847Z,55.53
2018-09-08T02:15:32.170Z,57.23
2018-09-08T02:18:00.458Z,50.57
2018-09-08T02:20:28.739Z,59.57
2018-09-08T02:22:57.047Z,53.47
2018-09-08T02:25:25.384Z,50.90
2018-09-08T02:27:53.659Z,48.23
2018-09-08T02:30:21.964Z,49.63
2018-09-08T02:32:50.266Z,46.03
2018-09-08T02:35:18.567Z,43.23
2018-09-08T02:37:46.838Z,42.97
2018-09-08T02:40:15.111Z,40.67
2018-09-08T02:42:43.403Z,42.00
2018-09-08T02:45:11.711Z,39.17
2018-09-08T02:47:42.703Z,37.70
2018-09-08T02:50:29.388Z,37.87
2018-09-08T02:52:56.799Z,37.33
2018-09-08T02:55:24.054Z,36.53
2018-09-08T02:57:51.646Z,31.93
2018-09-08T03:00:18.924Z,29.97
2018-09-08T03:02:46.179Z,30.80
2018-09-08T03:05:13.446Z,30.10
2018-09-08T03:07:40.730Z,30.73
2018-09-08T03:10:08.000Z,30.47
2018-09-08T03:12:35.442Z,28.13
2018-09-08T03:15:02.706Z,26.53
2018-09-08T03:17:29.971Z,26.83
2018-09-08T03:19:57.412Z,24.60
2018-09-08T03:22:24.656Z,26.07
2018-09-08T03:24:51.941Z,24.97
2018-09-08T03:27:19.215Z,25.07
2018-09-08T03:29:46.606Z,20.43
2018-09-08T03:32:14.182Z,20.97
2018-09-08T03:34:41.463Z,23.10
2018-09-08T03:37:08.938Z,25.33
2018-09-08T03:39:36.219Z,23.60
2018-09-08T03:42:03.468Z,26.20
2018-09-08T03:44:30.740Z,27.23
2018-09-08T03:46:57.998Z,26.67
2018-09-08T03:49:25.265Z,24.93
2018-09-08T03:51:52.685Z,24.50
2018-09-08T03:54:19.950Z,27.27
2018-09-08T03:56:47.215Z,27.40
2018-09-08T03:59:14.482Z,28.47
2018-09-08T04:01:41.734Z,26.03
2018-09-08T04:04:10.004Z,25.20
2018-09-08T04:06:38.339Z,27.23
2018-09-08T04:09:08.564Z,31.20
2018-09-08T04:11:37.205Z,25.70
2018-09-08T04:14:05.490Z,31.03
2018-09-08T04:16:33.751Z,30.80
2018-09-08T04:19:02.038Z,26.40
2018-09-08T04:21:30.333Z,30.53
2018-09-08T04:23:58.669Z,26.57
2018-09-08T04:26:26.923Z,23.17
2018-09-08T04:28:55.194Z,23.47
2018-09-08T04:31:23.496Z,26.30
2018-09-08T04:33:51.804Z,24.63
2018-09-08T04:36:20.051Z,27.73
2018-09-08T04:38:48.384Z,26.93
2018-09-08T04:41:16.663Z,25.77
2018-09-08T04:43:44.939Z,30.67
2018-09-08T04:46:13.203Z,26.93
2018-09-08T04:48:41.484Z,27.20
2018-09-08T04:51:09.751Z,22.30
2018-09-08T04:53:38.044Z,23.43
2018-09-08T04:56:06.453Z,22.53
2018-09-08T04:58:34.715Z,22.13
2018-09-08T05:01:03.130Z,18.77
2018-09-08T05:03:31.414Z,21.30
2018-09-08T05:05:59.693Z,20.00
2018-09-08T05:08:27.979Z,19.80
2018-09-08T05:10:56.246Z,17.37
2018-09-08T05:13:24.516Z,18.20
2018-09-08T05:15:52.794Z,17.30
2018-09-08T05:18:21.111Z,15.80
2018-09-08T05:20:49.367Z,16.93
2018-09-08T05:23:17.628Z,15.93
2018-09-08T05:25:45.919Z,14.97
2018-09-08T05:28:14.212Z,14.43
2018-09-08T05:30:42.510Z,13.20
2018-09-08T05:33:10.775Z,13.00
2018-09-08T05:35:39.075Z,12.73
2018-09-08T05:38:07.361Z,15.13
2018-09-08T05:40:35.647Z,12.67
2018-09-08T05:43:03.982Z,12.40
2018-09-08T05:45:32.263Z,11.23
2018-09-08T05:48:00.512Z,10.77
2018-09-08T05:50:28.767Z,11.27
2018-09-08T05:52:57.032Z,12.87
2018-09-08T05:55:25.412Z,10.17
2018-09-08T05:57:53.686Z,11.00
2018-09-08T06:00:21.969Z,9.93
2018-09-08T06:02:50.251Z,10.23
2018-09-08T06:05:18.612Z,9.53
2018-09-08T06:07:46.984Z,10.17
2018-09-08T06:10:15.322Z,7.13
2018-09-08T06:12:43.536Z,12.03
2018-09-08T06:15:11.814Z,9.67
2018-09-08T06:17:40.071Z,8.03
2018-09-08T06:20:08.452Z,9.90
2018-09-08T06:22:36.731Z,7.77
2018-09-08T06:25:05.225Z,8.10
2018-09-08T06:27:33.513Z,9.60
2018-09-08T06:30:01.839Z,6.97
2018-09-08T06:32:30.132Z,7.77
2018-09-08T06:34:58.433Z,7.37
2018-09-08T06:37:26.730Z,9.63
2018-09-08T06:39:55.024Z,9.03
2018-09-08T06:42:23.304Z,9.57
2018-09-08T06:44:51.710Z,12.00
2018-09-08T06:47:19.976Z,13.97
2018-09-08T06:49:48.299Z,14.83
2018-09-08T06:52:16.609Z,15.80
2018-09-08T06:54:44.839Z,14.23
2018-09-08T06:57:13.112Z,17.43
2018-09-08T06:59:41.407Z,17.33
2018-09-08T07:02:09.679Z,30.53
2018-09-08T07:04:37.966Z,32.53
2018-09-08T07:07:10.699Z,32.67
2018-09-08T07:09:39.169Z,24.73
2018-09-08T07:12:07.447Z,31.23
2018-09-08T07:14:35.875Z,27.00
2018-09-08T07:17:04.172Z,21.47
2018-09-08T07:19:32.460Z,26.23
2018-09-08T07:22:00.726Z,23.57
2018-09-08T07:24:29.035Z,18.90
2018-09-08T07:26:57.352Z,17.93
2018-09-08T07:29:25.637Z,16.93
2018-09-08T07:31:53.911Z,30.90
2018-09-08T07:34:22.206Z,64.07
2018-09-08T07:36:50.655Z,39.40
2018-09-08T07:39:18.925Z,50.03
2018-09-08T07:41:47.251Z,39.03
2018-09-08T07:44:15.566Z,38.07
2018-09-08T07:46:43.847Z,37.17
2018-09-08T07:49:12.122Z,37.03
2018-09-08T07:51:40.371Z,33.63
2018-09-08T07:54:08.738Z,33.97
2018-09-08T07:56:36.952Z,29.63
2018-09-08T07:59:05.618Z,27.67
2018-09-08T08:01:33.968Z,29.67
2018-09-08T08:04:02.300Z,27.43
2018-09-08T08:06:30.573Z,28.70
2018-09-08T08:08:58.866Z,22.93
2018-09-08T08:11:27.143Z,26.17
2018-09-08T08:13:55.495Z,29.93
2018-09-08T08:16:23.792Z,36.33
2018-09-08T08:18:52.109Z,32.63
2018-09-08T08:21:20.390Z,33.47
2018-09-08T08:23:48.746Z,28.50
2018-09-08T08:26:17.006Z,34.73
2018-09-08T08:28:45.276Z,27.70
2018-09-08T08:31:13.618Z,31.10
2018-09-08T08:33:41.870Z,53.73
2018-09-08T08:36:10.135Z,61.37
2018-09-08T08:38:38.519Z,63.30
2018-09-08T08:41:06.807Z,60.37
2018-09-08T08:43:35.116Z,54.33
2018-09-08T08:46:03.419Z,53.73
2018-09-08T08:48:31.738Z,55.23
2018-09-08T08:52:11.232Z,48.47
2018-09-08T08:54:41.300Z,41.70
2018-09-08T08:57:09.573Z,39.00
2018-09-08T08:59:40.526Z,42.80
2018-09-08T09:02:08.907Z,35.53
2018-09-08T09:04:37.343Z,34.23
2018-09-08T09:07:05.860Z,39.57
2018-09-08T09:09:34.158Z,53.33
2018-09-08T09:12:02.454Z,56.43
2018-09-08T09:14:30.749Z,53.63
2018-09-08T09:16:59.063Z,53.80
2018-09-08T09:19:40.958Z,104.23
2018-09-08T09:22:23.067Z,62.60
2018-09-08T09:24:55.353Z,64.97
2018-09-08T09:27:24.037Z,57.40
2018-09-08T09:29:52.545Z,66.30
2018-09-08T09:32:20.971Z,71.60
2018-09-08T09:34:49.404Z,91.07
2018-09-08T09:37:17.778Z,58.73
2018-09-08T09:39:46.255Z,51.07
2018-09-08T09:42:14.552Z,55.10
2018-09-08T09:44:42.912Z,48.93
2018-09-08T09:47:11.247Z,46.53
2018-09-08T09:49:39.552Z,41.73
2018-09-08T09:52:07.894Z,41.03
2018-09-08T09:54:36.233Z,42.37
2018-09-08T09:57:04.597Z,73.07
2018-09-08T09:59:32.903Z,80.10
2018-09-08T10:02:03.122Z,59.17
2018-09-08T10:04:31.427Z,48.97
2018-09-08T10:06:59.726Z,42.90
2018-09-08T10:09:28.492Z,43.90
2018-09-08T10:11:56.817Z,40.97
2018-09-08T10:14:25.190Z,37.20
2018-09-08T10:16:53.510Z,39.43
2018-09-08T10:19:21.825Z,35.30
2018-09-08T10:21:50.211Z,33.43
2018-09-08T10:24:18.513Z,36.83
2018-09-08T10:26:46.802Z,42.20
2018-09-08T10:29:15.083Z,38.93
2018-09-08T10:31:43.362Z,37.77
2018-09-08T10:34:11.631Z,42.57
2018-09-08T10:36:39.926Z,50.77
2018-09-08T10:39:08.286Z,42.13
2018-09-08T10:41:36.583Z,47.50
2018-09-08T10:44:04.918Z,50.53
2018-09-08T10:46:33.211Z,54.33
2018-09-08T10:49:01.558Z,40.23
2018-09-08T10:51:44.732Z,36.43
2018-09-08T10:54:13.061Z,38.37
2018-09-08T10:56:41.371Z,32.77
2018-09-08T10:59:09.653Z,33.93
2018-09-08T11:01:38.085Z,32.60
2018-09-08T11:04:06.957Z,33.67
2018-09-08T11:06:35.489Z,31.50
2018-09-08T11:09:04.666Z,27.60
2018-09-08T11:11:33.139Z,27.70
2018-09-08T11:14:01.579Z,25.67
2018-09-08T11:16:30.028Z,23.07
2018-09-08T11:18:58.495Z,34.80
2018-09-08T11:21:26.799Z,33.43
2018-09-08T11:23:55.098Z,32.63
2018-09-08T11:26:23.406Z,46.93
2018-09-08T11:28:51.719Z,40.23
2018-09-08T11:31:20.007Z,43.20
2018-09-08T11:33:48.339Z,42.53
2018-09-08T11:36:16.643Z,38.03
2018-09-08T11:38:44.920Z,32.87
2018-09-08T11:41:13.220Z,36.67
2018-09-08T11:43:41.514Z,39.63
2018-09-08T11:46:09.811Z,33.93
2018-09-08T11:48:38.200Z,35.57
2018-09-08T11:51:06.514Z,39.70
2018-09-08T11:53:34.781Z,36.60
2018-09-08T11:56:03.058Z,45.77
2018-09-08T11:58:31.366Z,45.07
2018-09-08T12:00:59.748Z,43.80
2018-09-08T12:03:28.166Z,45.53
2018-09-08T12:05:56.642Z,42.43
2018-09-08T12:08:24.945Z,39.93
2018-09-08T12:10:53.227Z,37.43
2018-09-08T12:13:21.532Z,38.57
2018-09-08T12:15:49.828Z,42.43
2018-09-08T12:18:18.129Z,34.27
2018-09-08T12:20:46.463Z,35.37
2018-09-08T12:23:14.809Z,34.50
2018-09-08T12:25:43.083Z,35.07
2018-09-08T12:28:11.370Z,32.50
2018-09-08T12:30:40.109Z,28.97
2018-09-08T12:33:08.509Z,29.43
2018-09-08T12:35:36.841Z,27.00
2018-09-08T12:38:05.127Z,33.70
2018-09-08T12:40:33.428Z,32.83
2018-09-08T12:43:01.783Z,47.07
2018-09-08T12:45:31.197Z,43.07
2018-09-08T12:47:59.741Z,46.63
2018-09-08T12:50:28.212Z,39.50
2018-09-08T12:52:56.774Z,41.87
2018-09-08T12:55:25.110Z,37.30
2018-09-08T12:57:53.404Z,35.73
2018-09-08T13:00:21.917Z,31.13
2018-09-08T13:02:50.207Z,51.77
2018-09-08T13:05:18.599Z,54.00
2018-09-08T13:07:47.124Z,88.73
2018-09-08T13:10:15.676Z,61.63
2018-09-08T13:12:44.000Z,45.20
2018-09-08T13:15:12.327Z,45.33
2018-09-08T13:17:40.646Z,42.67
2018-09-08T13:20:09.035Z,47.57
2018-09-08T13:22:37.417Z,63.97
2018-09-08T13:25:05.750Z,88.87
2018-09-08T13:27:34.070Z,157.00
2018-09-08T13:30:02.368Z,110.83
2018-09-08T13:32:30.697Z,109.47
2018-09-08T13:34:59.020Z,89.00
2018-09-08T13:37:27.313Z,79.47
2018-09-08T13:39:55.640Z,70.77
2018-09-08T13:42:23.948Z,71.80
2018-09-08T13:44:52.536Z,67.07
2018-09-08T13:47:20.899Z,62.93
2018-09-08T13:49:49.234Z,61.70
2018-09-08T13:52:17.539Z,52.60
2018-09-08T13:54:45.896Z,54.30
2018-09-08T13:57:14.225Z,49.77
2018-09-08T13:59:42.722Z,48.80
2018-09-08T14:02:11.036Z,45.53
2018-09-08T14:04:39.387Z,45.57
2018-09-08T14:07:07.925Z,47.10
2018-09-08T14:09:36.211Z,43.53
2018-09-08T14:12:04.495Z,43.43
2018-09-08T14:14:32.781Z,38.40
2018-09-08T14:17:01.183Z,60.90
2018-09-08T14:19:29.464Z,42.20
2018-09-08T14:21:57.786Z,60.73
2018-09-08T14:24:26.095Z,137.63
2018-09-08T14:26:54.436Z,149.80
2018-09-08T14:29:22.854Z,109.97
2018-09-08T14:31:51.202Z,70.77
2018-09-08T14:34:19.613Z,67.40
2018-09-08T14:36:47.968Z,82.87
2018-09-08T14:39:16.290Z,82.70
2018-09-08T14:41:44.566Z,69.70
2018-09-08T14:44:12.919Z,74.67
2018-09-08T14:46:41.351Z,97.30
2018-09-08T14:49:09.732Z,101.50
2018-09-08T14:51:38.064Z,88.37
2018-09-08T14:54:06.402Z,83.50
2018-09-08T14:56:34.751Z,68.97
2018-09-08T14:59:03.105Z,57.83
2018-09-08T15:01:31.467Z,58.13
2018-09-08T15:03:59.769Z,52.03
2018-09-08T15:06:28.075Z,55.33
2018-09-08T15:08:56.384Z,48.83
2018-09-08T15:11:24.661Z,48.10
2018-09-08T15:13:53.142Z,49.57
2018-09-08T15:16:21.477Z,59.83
2018-09-08T15:18:49.799Z,53.00
2018-09-08T15:21:18.100Z,74.47
2018-09-08T15:23:46.409Z,83.83
2018-09-08T15:26:14.823Z,81.20
2018-09-08T15:28:43.230Z,67.10
2018-09-08T15:31:11.545Z,77.77
2018-09-08T15:33:39.862Z,65.30
2018-09-08T15:36:08.212Z,69.23
2018-09-08T15:38:36.528Z,63.10
2018-09-08T15:41:04.863Z,55.07
2018-09-08T15:43:33.186Z,59.17
2018-09-08T15:46:01.560Z,67.03
2018-09-08T15:48:29.887Z,65.83
2018-09-08T15:50:58.252Z,62.53
2018-09-08T15:53:26.728Z,150.73
2018-09-08T15:55:55.037Z,108.47
2018-09-08T15:58:23.421Z,139.70
2018-09-08T16:00:51.753Z,123.37
2018-09-08T16:03:20.053Z,112.40
2018-09-08T16:05:48.384Z,105.53
2018-09-08T16:08:16.725Z,105.43
2018-09-08T16:10:45.152Z,99.80
2018-09-08T16:13:13.516Z,104.63
2018-09-08T16:15:41.984Z,97.13
2018-09-08T16:18:10.353Z,93.90
2018-09-08T16:20:38.694Z,91.67
2018-09-08T16:23:07.016Z,91.70
2018-09-08T16:25:35.319Z,92.93
2018-09-08T16:28:03.608Z,88.77
2018-09-08T16:30:31.909Z,89.53
2018-09-08T16:33:00.249Z,88.27
2018-09-08T16:35:28.537Z,110.70
2018-09-08T16:37:56.825Z,126.80
2018-09-08T16:40:25.144Z,118.23
2018-09-08T16:42:53.425Z,106.43
2018-09-08T16:45:21.862Z,110.30
2018-09-08T16:47:50.243Z,116.00
2018-09-08T16:50:18.568Z,114.07
2018-09-08T16:52:46.893Z,113.30
2018-09-08T16:55:15.207Z,118.07
2018-09-08T16:57:43.505Z,109.00
2018-09-08T17:00:12.002Z,111.93
2018-09-08T17:02:40.338Z,110.80
2018-09-08T17:05:08.787Z,110.83
2018-09-08T17:07:37.625Z,113.07
2018-09-08T17:10:06.483Z,113.03
2018-09-08T17:12:34.811Z,119.40
2018-09-08T17:15:03.159Z,226.63
2018-09-08T17:17:31.488Z,125.37
2018-09-08T17:19:59.885Z,126.27
2018-09-08T17:22:28.236Z,150.93
2018-09-08T17:24:56.526Z,144.60
2018-09-08T17:27:24.834Z,141.47
2018-09-08T17:29:53.296Z,133.77
2018-09-08T17:32:21.682Z,129.03
2018-09-08T17:34:49.916Z,132.20
2018-09-08T17:37:18.226Z,132.10
2018-09-08T17:39:46.543Z,131.30
2018-09-08T17:42:14.858Z,133.60
2018-09-08T17:44:43.180Z,123.53
2018-09-08T17:47:11.473Z,128.43
2018-09-08T17:49:39.803Z,127.70
2018-09-08T17:52:08.194Z,138.80
2018-09-08T17:54:36.511Z,158.27
2018-09-08T17:57:04.819Z,157.23
2018-09-08T17:59:33.124Z,140.53
2018-09-08T18:02:01.533Z,137.77
2018-09-08T18:04:29.874Z,113.03
2018-09-08T18:06:58.210Z,110.47
2018-09-08T18:09:26.586Z,104.37
2018-09-08T18:11:55.061Z,101.27
2018-09-08T18:14:23.375Z,113.93
2018-09-08T18:16:51.832Z,151.17
2018-09-08T18:19:20.217Z,158.67
2018-09-08T18:21:48.589Z,140.67
2018-09-08T18:24:16.897Z,135.43
2018-09-08T18:26:45.185Z,125.30
2018-09-08T18:29:13.511Z,125.13
2018-09-08T18:31:41.809Z,117.80
2018-09-08T18:34:10.172Z,114.57
2018-09-08T18:36:38.472Z,110.77
2018-09-08T18:39:06.846Z,106.53
2018-09-08T18:41:35.390Z,104.33
2018-09-08T18:44:03.706Z,116.13
2018-09-08T18:46:32.057Z,138.43
2018-09-08T18:49:00.609Z,134.23
2018-09-08T18:51:28.950Z,130.10
2018-09-08T18:53:57.352Z,118.27
2018-09-08T18:56:25.659Z,107.30
2018-09-08T18:58:53.987Z,107.47
2018-09-08T19:01:22.272Z,130.20
2018-09-08T19:03:50.579Z,110.47
2018-09-08T19:06:18.878Z,106.67
2018-09-08T19:08:47.303Z,104.70
2018-09-08T19:11:15.681Z,106.43
2018-09-08T19:13:44.696Z,100.50
2018-09-08T19:16:12.959Z,96.30
2018-09-08T19:18:41.258Z,96.70
2018-09-08T19:21:09.684Z,118.27
2018-09-08T19:23:38.036Z,126.73
2018-09-08T19:26:06.522Z,125.10
2018-09-08T19:28:34.929Z,102.73
2018-09-08T19:31:03.341Z,94.93
2018-09-08T19:33:31.684Z,96.90
2018-09-08T19:36:00.053Z,107.90
2018-09-08T19:38:28.368Z,114.10
2018-09-08T19:40:56.809Z,119.47
2018-09-08T19:43:25.216Z,110.77
2018-09-08T19:45:53.544Z,104.03
2018-09-08T19:48:22.064Z,97.73
2018-09-08T19:50:54.057Z,95.00
2018-09-08T19:53:33.122Z,92.67
2018-09-08T19:56:01.550Z,88.63
2018-09-08T19:58:35.377Z,129.10
2018-09-08T20:01:03.665Z,105.23
2018-09-08T20:03:31.990Z,98.00
2018-09-08T20:06:02.114Z,84.57
2018-09-08T20:08:30.426Z,82.13
2018-09-08T20:10:58.923Z,85.17
2018-09-08T20:13:27.283Z,115.80
2018-09-08T20:15:55.612Z,174.57
2018-09-08T20:18:24.094Z,148.40
2018-09-08T20:20:52.452Z,139.23
2018-09-08T20:23:20.838Z,117.63
2018-09-08T20:25:49.189Z,115.13
2018-09-08T20:28:17.485Z,118.87
2018-09-08T20:30:45.781Z,147.57
2018-09-08T20:33:14.119Z,169.73
2018-09-08T20:35:42.400Z,131.53
2018-09-08T20:38:10.833Z,123.23
2018-09-08T20:40:39.111Z,117.03
2018-09-08T20:43:07.414Z,117.07
2018-09-08T20:45:35.757Z,109.87
2018-09-08T20:48:04.084Z,106.07
2018-09-08T20:50:32.375Z,103.00
2018-09-08T20:53:00.890Z,100.47
2018-09-08T20:55:29.162Z,98.50
2018-09-08T20:57:57.504Z,92.97
2018-09-08T21:00:25.850Z,92.10
2018-09-08T21:02:54.162Z,94.10
2018-09-08T21:05:22.486Z,93.03
2018-09-08T21:07:50.861Z,76.23
2018-09-08T21:10:19.187Z,53.13
2018-09-08T21:12:47.516Z,62.10
2018-09-08T21:15:15.821Z,57.03
2018-09-08T21:17:44.109Z,50.90
2018-09-08T21:20:12.449Z,48.87
2018-09-08T21:22:40.772Z,45.80
2018-09-08T21:25:09.182Z,46.87
2018-09-08T21:27:37.521Z,43.23
2018-09-08T21:30:05.836Z,41.57
2018-09-08T21:32:34.157Z,67.37
2018-09-08T21:35:02.451Z,111.90
2018-09-08T21:37:30.838Z,103.87
2018-09-08T21:39:59.155Z,83.97
2018-09-08T21:42:27.918Z,69.63
2018-09-08T21:44:56.192Z,61.10
2018-09-08T21:47:24.645Z,57.77
2018-09-08T21:49:53.089Z,49.77
2018-09-08T21:52:21.455Z,50.50
2018-09-08T21:54:49.791Z,45.73
2018-09-08T21:57:18.151Z,42.53
2018-09-08T21:59:46.423Z,40.30
2018-09-08T22:02:14.710Z,45.43
2018-09-08T22:04:43.048Z,49.70
2018-09-08T22:07:11.418Z,53.37
2018-09-08T22:09:39.813Z,52.67
2018-09-08T22:12:10.760Z,67.33
2018-09-08T22:14:39.458Z,104.13
2018-09-08T22:17:07.827Z,112.47
2018-09-08T22:19:36.118Z,70.10
2018-09-08T22:22:04.422Z,54.53
2018-09-08T22:24:32.764Z,48.97
2018-09-08T22:27:01.071Z,48.50
2018-09-08T22:29:29.408Z,52.37
2018-09-08T22:31:57.720Z,48.53
2018-09-08T22:34:26.063Z,81.63
2018-09-08T22:36:54.445Z,105.97
2018-09-08T22:39:22.755Z,97.80
2018-09-08T22:41:51.114Z,102.57
2018-09-08T22:44:21.150Z,83.07
2018-09-08T22:46:49.442Z,72.33
2018-09-08T22:49:17.787Z,73.73
2018-09-08T22:51:46.149Z,68.00
2018-09-08T22:54:14.464Z,58.43
2018-09-08T22:56:42.889Z,62.23
2018-09-08T22:59:11.257Z,55.80
2018-09-08T23:01:39.563Z,58.40
2018-09-08T23:04:07.892Z,54.50
2018-09-08T23:06:36.183Z,49.90
2018-09-08T23:09:05.208Z,51.03
2018-09-08T23:11:33.535Z,48.37
2018-09-08T23:14:01.816Z,44.60
2018-09-08T23:16:30.164Z,45.60
2018-09-08T23:18:58.467Z,41.03
2018-09-08T23:21:26.810Z,40.07
2018-09-08T23:23:55.089Z,44.77
2018-09-08T23:26:23.423Z,46.03
2018-09-08T23:28:51.726Z,65.83
2018-09-08T23:31:20.036Z,68.00
2018-09-08T23:33:48.344Z,63.77
2018-09-08T23:36:16.648Z,64.60
2018-09-08T23:38:44.923Z,55.17
2018-09-08T23:41:13.378Z,50.90
2018-09-08T23:43:41.672Z,46.47
2018-09-08T23:46:10.005Z,50.40
2018-09-08T23:48:38.301Z,52.23
2018-09-08T23:51:06.727Z,47.37
2018-09-08T23:53:40.145Z,50.67
2018-09-08T23:56:13.267Z,52.63
2018-09-08T23:58:43.187Z,54.87
